Time;durP1;ratioP1;P1;durP2;ratioP2;P2;SDS_P1;SDS_P2;PMS_P1;PMS_P2;Temp;Humidity;BMP_temperature;BMP_pressure;BME280_temperature;BME280_humidity;BME280_pressure;Samples;Min_cycle;Max_cycle;Signal;HPM_P1;HPM_P2
2022/01/16 00:00:55;;;;;;;301.10;103.30;;;;;;;-1.49;84.84;99608.41;108242;1273;22736;-75
2022/01/16 00:06:07;;;;;;;270.50;93.00;;;;;;;-1.53;84.54;99626.89;108214;1273;22627;-75
2022/01/16 00:08:34;;;;;;;292.80;106.50;;;;;;;-1.52;84.36;99617.30;108206;1274;22627;-75
2022/01/16 00:11:01;;;;;;;276.80;110.50;;;;;;;-1.54;84.26;99612.37;108221;1274;22712;-75
2022/01/16 00:13:28;;;;;;;271.20;103.30;;;;;;;-1.58;84.42;99610.83;108225;1273;22703;-75
2022/01/16 00:15:55;;;;;;;282.80;107.00;;;;;;;-1.64;84.50;99614.08;108228;1273;22673;-75
2022/01/16 00:18:26;;;;;;;303.50;114.80;;;;;;;-1.70;84.48;99613.90;108269;1273;24415;-76
2022/01/16 00:20:53;;;;;;;307.80;117.90;;;;;;;-1.78;84.37;99609.13;108233;1273;22581;-76
2022/01/16 00:23:26;;;;;;;309.30;105.90;;;;;;;-1.83;84.16;99594.45;108215;1273;23407;-76
2022/01/16 00:25:56;;;;;;;274.00;100.00;;;;;;;-1.86;83.94;99584.70;108271;1273;22575;-76
2022/01/16 00:28:24;;;;;;;263.20;94.20;;;;;;;-1.89;83.94;99587.12;108269;1273;26368;-76
2022/01/16 00:30:52;;;;;;;232.90;88.90;;;;;;;-1.94;84.15;99592.56;108235;1273;22735;-78
2022/01/16 00:33:19;;;;;;;246.10;91.20;;;;;;;-2.00;84.26;99588.47;108255;1273;22655;-78
2022/01/16 00:35:46;;;;;;;240.70;90.10;;;;;;;-2.06;84.18;99580.61;108251;1273;22592;-76
2022/01/16 00:38:13;;;;;;;237.50;86.80;;;;;;;-2.11;84.24;99564.55;108200;1273;22788;-76
2022/01/16 00:40:41;;;;;;;239.80;89.20;;;;;;;-2.17;83.86;99536.25;108227;1273;22568;-77
2022/01/16 00:43:08;;;;;;;253.10;88.40;;;;;;;-2.22;83.69;99554.31;108219;1273;22639;-76
2022/01/16 00:45:35;;;;;;;267.80;98.30;;;;;;;-2.25;83.56;99569.85;108225;1273;22573;-78
2022/01/16 00:48:04;;;;;;;276.20;101.00;;;;;;;-2.26;83.63;99579.58;108228;1273;22549;-76
2022/01/16 00:50:33;;;;;;;240.60;91.40;;;;;;;-2.29;83.86;99580.41;108235;1273;23176;-76
2022/01/16 00:53:02;;;;;;;267.30;94.20;;;;;;;-2.36;83.94;99586.04;108224;1273;26067;-78
2022/01/16 00:55:29;;;;;;;237.80;90.80;;;;;;;-2.45;83.90;99589.61;108138;1274;22725;-76
2022/01/16 00:57:55;;;;;;;235.70;86.60;;;;;;;-2.55;83.61;99583.45;108196;1274;22628;-77
2022/01/16 01:00:22;;;;;;;241.00;85.70;;;;;;;-2.64;83.57;99558.52;108201;1275;22546;-75
2022/01/16 01:02:53;;;;;;;229.30;86.60;;;;;;;-2.73;83.55;99550.31;108160;1274;22538;-76
2022/01/16 01:05:20;;;;;;;235.20;87.60;;;;;;;-2.80;83.38;99568.02;108193;1276;22547;-77
2022/01/16 01:07:47;;;;;;;211.80;76.80;;;;;;;-2.83;83.25;99569.37;108204;1276;22613;-76
2022/01/16 01:10:14;;;;;;;187.50;71.20;;;;;;;-2.85;83.20;99563.06;108225;1276;22709;-75
2022/01/16 01:12:55;;;;;;;172.20;66.40;;;;;;;-2.88;83.37;99561.52;108189;1276;23096;-75
2022/01/16 01:15:30;;;;;;;202.70;73.80;;;;;;;-2.94;83.61;99544.96;108204;1276;22565;-78
2022/01/16 01:17:57;;;;;;;202.90;74.80;;;;;;;-2.99;83.54;99536.09;108014;1276;232141;-77
2022/01/16 01:20:25;;;;;;;201.10;76.90;;;;;;;-3.04;83.53;99543.56;108237;1275;22551;-78
2022/01/16 01:22:53;;;;;;;209.90;82.40;;;;;;;-3.08;83.56;99526.85;108192;1276;25490;-77
2022/01/16 01:25:20;;;;;;;209.30;78.10;;;;;;;-3.12;83.12;99518.65;108303;1275;22558;-77
2022/01/16 01:27:48;;;;;;;206.10;75.90;;;;;;;-3.12;83.03;99544.20;108188;1276;25470;-78
2022/01/16 01:30:17;;;;;;;191.90;71.10;;;;;;;-3.12;83.19;99538.41;108165;1276;22869;-77
2022/01/16 01:32:48;;;;;;;167.50;63.30;;;;;;;-3.13;83.30;99535.53;108286;1276;22626;-78
2022/01/16 01:35:16;;;;;;;176.70;69.40;;;;;;;-3.17;83.49;99533.46;108427;1276;24385;-77
2022/01/16 01:37:44;;;;;;;187.40;72.10;;;;;;;-3.21;83.35;99431.39;108450;1276;23940;-76
2022/01/16 01:40:20;;;;;;;186.90;71.30;;;;;;;-3.26;83.48;99421.48;108426;1276;22581;-77
2022/01/16 01:43:02;;;;;;;184.50;73.40;;;;;;;-3.32;83.36;99435.80;108441;1276;23963;-80
2022/01/16 01:51:32;;;;;;;195.10;71.80;;;;;;;-3.48;82.84;99448.84;108110;1282;22745;-76
2022/01/16 01:54:00;;;;;;;165.10;64.40;;;;;;;-3.50;82.82;99456.00;108412;1276;25423;-76
2022/01/16 01:56:28;;;;;;;179.70;69.40;;;;;;;-3.55;82.90;99472.99;108481;1273;22604;-77
2022/01/16 01:59:00;;;;;;;195.90;70.30;;;;;;;-3.59;83.16;99473.66;108444;1273;22634;-77
2022/01/16 02:01:29;;;;;;;206.60;74.90;;;;;;;-3.64;83.23;99456.44;108426;1274;22563;-78
2022/01/16 02:03:57;;;;;;;272.30;93.10;;;;;;;-3.69;82.96;99455.91;108456;1274;22641;-77
2022/01/16 02:06:26;;;;;;;295.00;98.70;;;;;;;-3.73;82.70;99459.45;108558;1273;22560;-80
2022/01/16 02:08:56;;;;;;;270.80;92.60;;;;;;;-3.76;82.51;99478.69;108460;1273;22573;-80
2022/01/16 02:11:27;;;;;;;243.70;85.10;;;;;;;-3.74;82.61;99446.34;108432;1273;22703;-81
2022/01/16 02:36:19;;;;;;;169.00;71.40;;;;;;;-4.10;82.28;99485.27;108069;1282;22558;-76
2022/01/16 02:38:47;;;;;;;169.70;63.40;;;;;;;-4.12;82.25;99490.19;107846;1282;22559;-75
2022/01/16 02:41:15;;;;;;;134.80;53.00;;;;;;;-4.14;82.69;99492.39;108050;1282;22580;-77
2022/01/16 02:43:47;;;;;;;177.00;64.80;;;;;;;-4.19;83.03;99496.42;108046;1282;22545;-76
2022/01/16 02:48:44;;;;;;;251.60;92.10;;;;;;;-4.25;82.75;99483.80;108046;1282;25314;-79
2022/01/16 02:51:15;;;;;;;301.20;109.50;;;;;;;-4.27;82.84;99481.39;108046;1282;22624;-78
2022/01/16 02:53:43;;;;;;;276.20;105.30;;;;;;;-4.31;82.50;99486.48;108048;1282;22754;-76
2022/01/16 02:56:11;;;;;;;254.20;94.20;;;;;;;-4.32;82.73;99478.15;108073;1282;22540;-78
2022/01/16 02:58:39;;;;;;;272.90;99.60;;;;;;;-4.30;82.36;99484.28;108064;1282;24264;-76
2022/01/16 03:01:07;;;;;;;286.40;107.10;;;;;;;-4.29;82.51;99477.14;108047;1282;22555;-77
2022/01/16 03:03:34;;;;;;;267.30;104.20;;;;;;;-4.29;82.72;99480.52;108412;1274;25286;-75
2022/01/16 03:06:01;;;;;;;269.50;102.20;;;;;;;-4.32;82.77;99479.16;108441;1273;22766;-76
2022/01/16 03:08:28;;;;;;;250.00;96.80;;;;;;;-4.34;82.67;99472.00;108446;1273;22566;-80
2022/01/16 03:13:22;;;;;;;241.60;92.00;;;;;;;-4.41;82.71;99477.05;108418;1274;22705;-78
2022/01/16 03:15:52;;;;;;;220.90;87.30;;;;;;;-4.45;82.57;99468.50;108438;1274;22555;-76
2022/01/16 03:23:33;;;;;;;191.90;74.10;;;;;;;-4.55;81.99;99447.84;108430;1274;22561;-75
2022/01/16 03:26:00;;;;;;;173.80;69.00;;;;;;;-4.56;82.21;99454.30;108448;1274;22556;-77
2022/01/16 03:28:27;;;;;;;156.70;58.90;;;;;;;-4.57;82.37;99455.67;108441;1274;22544;-78
2022/01/16 03:30:55;;;;;;;152.00;63.00;;;;;;;-4.61;82.72;99452.56;108433;1273;22587;-75
2022/01/16 03:33:23;;;;;;;156.70;63.40;;;;;;;-4.64;82.56;99444.88;108467;1274;25339;-75
2022/01/16 03:35:51;;;;;;;160.90;63.60;;;;;;;-4.65;82.54;99434.34;108454;1274;22564;-75
2022/01/16 03:38:18;;;;;;;174.10;68.20;;;;;;;-4.68;82.21;99428.38;108457;1274;22557;-75
2022/01/16 03:40:45;;;;;;;185.40;68.30;;;;;;;-4.70;82.23;99432.27;108449;1274;22724;-75
2022/01/16 03:43:14;;;;;;;181.20;65.80;;;;;;;-4.71;82.17;99428.00;108447;1274;22559;-75
2022/01/16 03:45:49;;;;;;;197.90;73.30;;;;;;;-4.68;81.98;99419.70;108439;1273;22636;-78
2022/01/16 03:48:16;;;;;;;177.70;70.80;;;;;;;-4.67;81.93;99416.67;108436;1274;22564;-75
2022/01/16 03:50:44;;;;;;;155.20;60.30;;;;;;;-4.67;82.30;99421.93;108450;1274;24294;-76
2022/01/16 03:53:11;;;;;;;157.60;61.70;;;;;;;-4.71;82.60;99420.36;108413;1274;22599;-75
2022/01/16 03:55:38;;;;;;;166.30;64.70;;;;;;;-4.73;82.41;99418.29;108435;1274;24221;-76
2022/01/16 03:58:05;;;;;;;161.00;64.60;;;;;;;-4.76;82.22;99415.73;108434;1274;25361;-76
2022/01/16 04:00:32;;;;;;;141.70;56.50;;;;;;;-4.80;82.17;99405.33;108436;1273;22548;-77
2022/01/16 04:02:59;;;;;;;141.90;55.90;;;;;;;-4.84;82.18;99405.81;108441;1274;22571;-77
2022/01/16 04:05:26;;;;;;;146.40;56.10;;;;;;;-4.88;81.97;99406.96;108472;1273;22721;-75
2022/01/16 04:07:53;;;;;;;138.40;51.70;;;;;;;-4.92;81.84;99402.16;108448;1273;24408;-74
2022/01/16 04:10:21;;;;;;;154.60;54.60;;;;;;;-4.95;81.67;99397.89;108375;1274;22587;-75
2022/01/16 04:12:48;;;;;;;174.70;63.90;;;;;;;-4.95;81.64;99402.15;108462;1273;22555;-77
2022/01/16 04:17:45;;;;;;;143.40;56.10;;;;;;;-4.95;81.86;99395.85;108475;1273;22549;-77
2022/01/16 04:20:16;;;;;;;135.00;52.40;;;;;;;-4.97;82.21;99395.49;108435;1273;22694;-78
2022/01/16 04:22:45;;;;;;;134.70;55.70;;;;;;;-5.00;82.20;99391.89;108440;1274;22569;-78
2022/01/16 04:25:13;;;;;;;132.90;55.20;;;;;;;-5.02;82.17;99383.56;108461;1273;25442;-77
2022/01/16 04:27:41;;;;;;;134.90;56.80;;;;;;;-5.06;82.01;99383.35;108437;1274;22627;-77
2022/01/16 04:30:09;;;;;;;134.60;52.00;;;;;;;-5.09;81.93;99380.27;108434;1274;24236;-78
2022/01/16 04:32:36;;;;;;;139.00;51.90;;;;;;;-5.12;81.73;99380.41;108454;1274;22627;-78
2022/01/16 04:35:04;;;;;;;154.40;61.70;;;;;;;-5.14;81.63;99374.95;108436;1274;25535;-78
2022/01/16 04:37:31;;;;;;;156.70;62.60;;;;;;;-5.14;81.33;99373.94;108444;1274;22541;-75
2022/01/16 04:40:01;;;;;;;173.80;64.00;;;;;;;-5.14;81.63;99373.44;108434;1273;22563;-76
2022/01/16 04:45:14;;;;;;;177.80;71.70;;;;;;;-5.16;82.44;99371.20;108432;1273;22620;-76
2022/01/16 04:47:42;;;;;;;182.40;71.60;;;;;;;-5.21;82.29;99367.26;108460;1274;22557;-76
2022/01/16 04:50:12;;;;;;;177.80;67.20;;;;;;;-5.23;82.27;99369.61;108484;1273;22592;-76
2022/01/16 04:52:42;;;;;;;175.60;60.50;;;;;;;-5.26;82.21;99371.09;108441;1274;22560;-76
2022/01/16 04:55:11;;;;;;;157.50;59.60;;;;;;;-5.29;81.89;99367.52;108440;1273;22540;-76
2022/01/16 04:57:39;;;;;;;159.50;58.90;;;;;;;-5.32;81.87;99360.18;108446;1273;23939;-78
2022/01/16 05:00:12;;;;;;;162.90;58.80;;;;;;;-5.36;81.66;99351.82;108429;1274;22582;-78
2022/01/16 05:02:39;;;;;;;157.50;57.70;;;;;;;-5.39;81.37;99347.23;108437;1274;22592;-76
2022/01/16 05:05:07;;;;;;;179.60;66.10;;;;;;;-5.38;81.24;99344.86;108457;1273;22574;-76
2022/01/16 05:07:34;;;;;;;185.00;76.90;;;;;;;-5.38;81.40;99337.73;108404;1274;22806;-75
2022/01/16 05:10:02;;;;;;;194.30;78.00;;;;;;;-5.39;81.80;99336.88;108276;1274;22611;-74
2022/01/16 05:12:35;;;;;;;216.90;85.40;;;;;;;-5.42;82.10;99337.34;108193;1274;22579;-74
2022/01/16 05:17:49;;;;;;;195.80;77.10;;;;;;;-5.46;81.99;99334.42;108146;1274;22553;-75
2022/01/16 05:20:16;;;;;;;183.00;75.00;;;;;;;-5.49;81.76;99326.23;108200;1273;24485;-75
2022/01/16 05:22:43;;;;;;;200.70;79.10;;;;;;;-5.52;81.82;99323.48;108237;1274;22650;-78
2022/01/16 05:25:14;;;;;;;185.70;72.70;;;;;;;-5.54;81.68;99315.14;108242;1274;22659;-75
2022/01/16 05:27:41;;;;;;;204.70;80.00;;;;;;;-5.52;81.52;99308.89;108279;1274;24783;-75
2022/01/16 05:30:09;;;;;;;180.30;77.40;;;;;;;-5.50;81.64;99310.10;108246;1273;22589;-74
2022/01/16 05:32:36;;;;;;;174.00;69.90;;;;;;;-5.48;82.28;99309.10;108280;1274;22639;-74
2022/01/16 05:35:04;;;;;;;178.90;71.20;;;;;;;-5.49;82.22;99303.16;108276;1274;23962;-78
2022/01/16 05:37:31;;;;;;;184.70;72.50;;;;;;;-5.51;82.17;99304.32;108324;1273;22773;-75
2022/01/16 05:39:58;;;;;;;172.50;69.00;;;;;;;-5.52;82.11;99298.52;108257;1273;22640;-77
2022/01/16 05:42:25;;;;;;;175.50;69.10;;;;;;;-5.53;82.09;99291.73;108207;1274;22561;-76
2022/01/16 05:44:52;;;;;;;179.30;70.60;;;;;;;-5.55;81.87;99286.98;108225;1274;24311;-78
2022/01/16 05:47:19;;;;;;;175.30;76.10;;;;;;;-5.57;81.92;99289.34;108218;1273;22875;-78
2022/01/16 05:49:46;;;;;;;191.50;80.10;;;;;;;-5.53;81.48;99292.74;108261;1274;22774;-74
2022/01/16 05:52:12;;;;;;;192.40;77.90;;;;;;;-5.52;81.72;99296.50;108607;1274;22595;-75
2022/01/16 05:54:39;;;;;;;163.70;61.80;;;;;;;-5.50;81.91;99294.48;108224;1274;22674;-76
2022/01/16 05:57:08;;;;;;;168.40;65.00;;;;;;;-5.52;82.21;99295.83;108169;1277;22564;-76
2022/01/16 05:59:35;;;;;;;176.10;67.50;;;;;;;-5.54;82.31;99290.02;108469;1275;22570;-75
2022/01/16 06:02:02;;;;;;;160.30;64.10;;;;;;;-5.54;82.08;99284.60;108194;1275;22538;-78
2022/01/16 06:04:29;;;;;;;157.20;61.60;;;;;;;-5.57;81.97;99283.57;108184;1276;22601;-80
2022/01/16 06:06:56;;;;;;;154.60;60.80;;;;;;;-5.58;81.84;99283.21;108210;1275;22590;-79
2022/01/16 06:09:26;;;;;;;144.00;59.60;;;;;;;-5.59;81.66;99286.23;108194;1274;23600;-75
2022/01/16 06:11:54;;;;;;;177.00;75.80;;;;;;;-5.56;81.51;99286.29;108227;1275;25328;-77
2022/01/16 06:14:23;;;;;;;181.70;73.40;;;;;;;-5.52;81.61;99283.59;108209;1274;22712;-77
2022/01/16 06:16:51;;;;;;;163.30;65.20;;;;;;;-5.50;82.01;99281.09;108139;1277;22888;-79
2022/01/16 06:19:19;;;;;;;160.40;66.00;;;;;;;-5.49;82.22;99278.38;108298;1277;22718;-80
2022/01/16 06:21:46;;;;;;;143.70;59.50;;;;;;;-5.48;82.22;99273.80;108275;1275;22675;-82
2022/01/16 06:24:14;;;;;;;147.00;59.00;;;;;;;-5.48;82.30;99269.21;108213;1276;22493;-78
2022/01/16 06:26:41;;;;;;;151.70;62.60;;;;;;;-5.48;82.01;99267.02;108212;1275;22935;-75
2022/01/16 06:29:09;;;;;;;155.00;63.90;;;;;;;-5.47;82.11;99265.33;108264;1275;22549;-76
2022/01/16 06:31:36;;;;;;;185.70;73.90;;;;;;;-5.47;81.75;99255.82;108316;1275;23288;-76
2022/01/16 06:34:06;;;;;;;175.90;70.20;;;;;;;-5.41;81.72;99253.15;108357;1277;22714;-80
2022/01/16 06:36:35;;;;;;;198.00;80.90;;;;;;;-5.37;81.82;99250.64;108214;1275;25528;-78
2022/01/16 06:39:04;;;;;;;164.70;66.80;;;;;;;-5.34;82.25;99249.47;108803;1275;25428;-79
2022/01/16 06:41:32;;;;;;;182.80;71.80;;;;;;;-5.32;82.54;99252.89;108176;1275;22621;-79
2022/01/16 06:43:59;;;;;;;194.80;79.40;;;;;;;-5.31;82.54;99247.47;108216;1275;22635;-78
2022/01/16 06:46:27;;;;;;;178.60;77.90;;;;;;;-5.28;82.28;99248.67;108205;1275;25045;-75
2022/01/16 06:48:54;;;;;;;186.90;77.80;;;;;;;-5.25;82.08;99246.81;108206;1277;22563;-77
2022/01/16 06:51:21;;;;;;;184.60;75.60;;;;;;;-5.22;82.19;99243.63;108168;1277;22752;-78
2022/01/16 06:53:50;;;;;;;208.70;84.40;;;;;;;-5.14;81.99;99238.41;108181;1277;22567;-80
2022/01/16 06:56:17;;;;;;;187.10;80.40;;;;;;;-5.07;82.10;99239.14;108177;1274;25590;-75
2022/01/16 06:58:44;;;;;;;151.80;61.40;;;;;;;-5.02;82.37;99242.56;108206;1274;22542;-76
2022/01/16 07:01:13;;;;;;;150.30;62.70;;;;;;;-4.99;82.72;99244.45;108211;1274;22560;-75
2022/01/16 07:03:41;;;;;;;152.00;63.70;;;;;;;-4.96;82.57;99243.12;108199;1274;22762;-75
2022/01/16 07:06:08;;;;;;;154.30;59.90;;;;;;;-4.93;82.61;99241.79;108269;1274;22666;-74
2022/01/16 07:08:35;;;;;;;143.10;56.00;;;;;;;-4.89;82.34;99239.42;108191;1274;25410;-76
2022/01/16 07:11:02;;;;;;;138.30;57.20;;;;;;;-4.89;82.05;99232.97;108210;1274;22562;-75
2022/01/16 07:13:29;;;;;;;126.90;51.50;;;;;;;-4.86;82.24;99234.52;108217;1274;22676;-75
2022/01/16 07:15:57;;;;;;;160.10;60.60;;;;;;;-4.82;82.25;99232.50;108224;1272;22709;-77
2022/01/16 07:18:24;;;;;;;200.40;78.80;;;;;;;-4.73;81.99;99224.90;108142;1277;22597;-75
2022/01/16 07:20:51;;;;;;;151.90;63.10;;;;;;;-4.65;82.42;99222.73;108189;1274;22580;-76
2022/01/16 07:23:19;;;;;;;131.20;50.30;;;;;;;-4.56;82.88;99220.91;108210;1274;22562;-75
2022/01/16 07:25:47;;;;;;;125.80;48.60;;;;;;;-4.49;83.19;99225.70;108281;1274;22561;-73
2022/01/16 07:28:15;;;;;;;96.80;41.40;;;;;;;-4.42;83.13;99227.27;108263;1274;22573;-74
2022/01/16 07:30:43;;;;;;;55.50;23.60;;;;;;;-4.34;83.05;99227.45;108186;1274;22539;-74
2022/01/16 07:33:10;;;;;;;53.10;22.10;;;;;;;-4.18;83.16;99220.54;108187;1274;22632;-74
2022/01/16 07:35:37;;;;;;;71.40;27.90;;;;;;;-3.99;83.16;99219.23;108221;1274;22583;-74
2022/01/16 07:38:06;;;;;;;74.20;29.50;;;;;;;-3.81;82.85;99222.83;108249;1274;22673;-75
2022/01/16 07:40:34;;;;;;;64.60;26.80;;;;;;;-3.63;83.31;99224.39;108211;1274;22553;-74
2022/01/16 07:43:01;;;;;;;58.30;23.70;;;;;;;-3.50;83.53;99226.96;108224;1274;22679;-77
2022/01/16 07:45:28;;;;;;;56.40;22.70;;;;;;;-3.39;83.52;99222.02;108193;1274;25253;-78
2022/01/16 07:47:55;;;;;;;47.40;22.30;;;;;;;-3.28;83.40;99219.13;108224;1274;23035;-74
2022/01/16 07:50:23;;;;;;;45.40;20.10;;;;;;;-3.17;82.90;99222.86;108209;1274;22594;-75
2022/01/16 07:52:50;;;;;;;47.70;22.00;;;;;;;-3.08;82.85;99216.04;108231;1274;22639;-75
2022/01/16 07:55:20;;;;;;;50.90;22.30;;;;;;;-2.99;82.66;99215.86;108217;1274;25574;-74
2022/01/16 07:57:47;;;;;;;51.60;20.90;;;;;;;-2.92;82.32;99217.55;108213;1274;22552;-73
2022/01/16 08:00:14;;;;;;;60.70;29.90;;;;;;;-2.86;82.33;99223.33;108240;1274;22606;-73
2022/01/16 08:02:41;;;;;;;58.20;26.90;;;;;;;-2.75;82.34;99221.42;108255;1274;22544;-74
2022/01/16 08:05:08;;;;;;;56.80;23.80;;;;;;;-2.66;82.27;99217.31;108222;1274;23055;-74
2022/01/16 08:07:35;;;;;;;49.60;19.90;;;;;;;-2.55;82.81;99215.23;108184;1274;22569;-76
2022/01/16 08:10:03;;;;;;;56.90;25.60;;;;;;;-2.49;82.80;99217.94;108205;1274;24185;-74
2022/01/16 08:12:29;;;;;;;55.60;21.00;;;;;;;-2.46;82.68;99218.09;108234;1274;22557;-74
2022/01/16 08:14:56;;;;;;;52.40;21.10;;;;;;;-2.41;82.33;99213.98;108208;1274;22626;-74
2022/01/16 08:17:23;;;;;;;65.40;24.40;;;;;;;-2.35;81.92;99207.66;108228;1274;24102;-75
2022/01/16 08:19:50;;;;;;;63.00;24.00;;;;;;;-2.33;82.05;99205.42;108239;1274;22576;-74
2022/01/16 08:22:17;;;;;;;56.50;20.70;;;;;;;-2.29;81.70;99200.45;108190;1274;22575;-74
2022/01/16 08:24:44;;;;;;;58.80;23.40;;;;;;;-2.24;81.56;99198.05;108217;1274;22698;-74
2022/01/16 08:27:13;;;;;;;154.90;53.80;;;;;;;-2.14;81.67;99200.20;108278;1274;22570;-74
2022/01/16 08:29:40;;;;;;;88.70;34.10;;;;;;;-2.07;81.83;99194.88;108210;1274;22761;-77
2022/01/16 08:32:07;;;;;;;80.50;32.60;;;;;;;-2.00;82.18;99191.77;108239;1274;22556;-72
2022/01/16 08:34:34;;;;;;;91.10;36.60;;;;;;;-1.98;81.89;99185.95;108357;1274;22558;-74
2022/01/16 08:37:01;;;;;;;75.10;32.20;;;;;;;-1.96;81.77;99183.88;108446;1274;22578;-74
2022/01/16 08:39:28;;;;;;;64.60;27.10;;;;;;;-1.96;81.46;99175.17;108361;1274;22634;-73
2022/01/16 08:41:55;;;;;;;73.20;26.40;;;;;;;-1.95;81.20;99168.68;108342;1274;22664;-74
2022/01/16 08:44:22;;;;;;;58.50;24.50;;;;;;;-1.94;81.16;99162.88;108441;1274;22643;-75
2022/01/16 08:46:49;;;;;;;65.40;27.60;;;;;;;-1.93;80.88;99154.50;108439;1274;22630;-75
2022/01/16 08:49:16;;;;;;;54.10;20.70;;;;;;;-1.89;80.78;99146.81;108426;1274;24116;-74
2022/01/16 08:51:43;;;;;;;64.30;25.20;;;;;;;-1.81;80.67;99146.74;108441;1274;22570;-77
2022/01/16 08:54:10;;;;;;;46.90;20.50;;;;;;;-1.72;80.99;99144.80;108464;1274;22624;-79
2022/01/16 08:56:37;;;;;;;49.50;21.70;;;;;;;-1.64;81.33;99140.47;108458;1274;22667;-74
2022/01/16 08:59:04;;;;;;;44.50;17.50;;;;;;;-1.58;81.32;99134.77;108557;1274;22571;-76
2022/01/16 09:01:31;;;;;;;55.00;24.70;;;;;;;-1.53;80.94;99135.09;108486;1274;22708;-76
2022/01/16 09:03:58;;;;;;;46.40;21.00;;;;;;;-1.50;80.56;99132.64;108437;1274;22588;-75
2022/01/16 09:06:27;;;;;;;42.60;18.30;;;;;;;-1.47;80.63;99129.73;108453;1274;24429;-75
2022/01/16 09:08:55;;;;;;;46.00;19.10;;;;;;;-1.44;80.41;99126.46;108489;1273;22709;-75
2022/01/16 09:11:25;;;;;;;53.80;23.00;;;;;;;-1.40;80.07;99120.79;108424;1274;22716;-74
2022/01/16 09:13:53;;;;;;;50.00;20.90;;;;;;;-1.36;79.68;99109.45;108430;1274;25486;-74
2022/01/16 09:16:21;;;;;;;49.10;18.40;;;;;;;-1.29;79.67;99106.31;108445;1273;24290;-74
2022/01/16 09:18:48;;;;;;;47.70;20.50;;;;;;;-1.20;79.78;99104.67;108462;1274;24258;-74
2022/01/16 09:21:17;;;;;;;47.30;19.40;;;;;;;-1.11;80.32;99100.48;108440;1273;22565;-76
2022/01/16 09:23:49;;;;;;;53.10;22.70;;;;;;;-1.05;80.06;99100.59;108464;1271;22698;-75
2022/01/16 09:26:16;;;;;;;87.70;32.40;;;;;;;-0.99;79.96;99099.15;108467;1273;22707;-75
2022/01/16 09:28:44;;;;;;;77.60;31.60;;;;;;;-0.93;79.55;99100.62;108472;1273;22537;-75
2022/01/16 09:31:12;;;;;;;101.00;32.80;;;;;;;-0.87;79.17;99094.22;108461;1273;22714;-76
2022/01/16 09:33:39;;;;;;;143.20;40.20;;;;;;;-0.80;78.98;99095.67;108438;1274;22698;-75
2022/01/16 09:36:08;;;;;;;181.80;50.80;;;;;;;-0.75;78.71;99096.81;108454;1273;22551;-75
2022/01/16 09:38:36;;;;;;;101.90;31.40;;;;;;;-0.68;78.78;99094.32;108430;1273;22569;-75
2022/01/16 09:41:05;;;;;;;110.30;37.90;;;;;;;-0.55;78.74;99087.32;108465;1273;22633;-75
2022/01/16 09:43:34;;;;;;;75.50;31.00;;;;;;;-0.45;78.99;99085.98;108485;1274;25426;-76
2022/01/16 09:46:02;;;;;;;90.80;38.50;;;;;;;-0.34;79.46;99080.52;108430;1274;22575;-75
2022/01/16 09:48:29;;;;;;;75.80;34.80;;;;;;;-0.27;79.13;99078.88;108470;1274;22566;-75
2022/01/16 09:50:56;;;;;;;59.00;29.90;;;;;;;-0.20;78.78;99077.74;108435;1273;22564;-75
2022/01/16 09:53:24;;;;;;;37.60;16.60;;;;;;;-0.10;77.57;99073.83;108467;1273;24309;-76
2022/01/16 09:55:51;;;;;;;54.60;20.70;;;;;;;-0.05;77.35;99073.23;108469;1274;22553;-76
2022/01/16 09:58:20;;;;;;;43.70;19.50;;;;;;;0.01;77.52;99066.46;108434;1273;24217;-75
2022/01/16 10:00:48;;;;;;;42.70;19.00;;;;;;;0.05;77.40;99069.15;108437;1273;23935;-76
2022/01/16 10:03:50;;;;;;;35.10;14.50;;;;;;;0.12;77.27;99063.55;108431;1274;22582;-75
2022/01/16 10:06:20;;;;;;;39.50;14.80;;;;;;;0.24;77.11;99066.77;108442;1274;22643;-76
2022/01/16 10:08:50;;;;;;;35.30;13.90;;;;;;;0.33;76.98;99065.08;108446;1274;23425;-75
2022/01/16 10:11:38;;;;;;;60.10;23.50;;;;;;;0.45;77.07;99069.51;108447;1274;22575;-76
2022/01/16 10:14:22;;;;;;;39.70;15.30;;;;;;;0.50;76.71;99065.66;108440;1273;22577;-75
2022/01/16 10:16:49;;;;;;;42.20;16.10;;;;;;;0.54;76.35;99066.93;108454;1274;22560;-75
2022/01/16 10:19:30;;;;;;;29.90;11.50;;;;;;;0.59;75.87;99063.60;108442;1274;24272;-76
2022/01/16 10:22:09;;;;;;;24.00;10.40;;;;;;;0.64;75.17;99056.64;108432;1273;22569;-78
2022/01/16 10:24:39;;;;;;;25.50;10.40;;;;;;;0.66;74.63;99053.69;108431;1274;22563;-77
2022/01/16 10:27:14;;;;;;;28.10;11.20;;;;;;;0.68;74.55;99053.48;108441;1273;22569;-77
2022/01/16 10:29:46;;;;;;;29.10;10.20;;;;;;;0.72;73.61;99038.48;108455;1274;25354;-77
2022/01/16 10:32:31;;;;;;;29.60;12.20;;;;;;;0.80;73.71;99038.00;108423;1274;22550;-77
2022/01/16 10:35:11;;;;;;;28.60;11.90;;;;;;;0.86;73.20;99033.95;108439;1274;22573;-75
2022/01/16 10:37:42;;;;;;;40.20;16.20;;;;;;;0.88;73.20;99028.24;108455;1274;22587;-77
2022/01/16 10:40:18;;;;;;;37.70;14.80;;;;;;;0.93;72.94;99027.96;108475;1274;22578;-77
2022/01/16 10:42:54;;;;;;;31.50;12.60;;;;;;;1.00;72.81;99021.64;108433;1274;22583;-77
2022/01/16 10:45:27;;;;;;;31.20;12.80;;;;;;;1.06;72.62;99020.14;108450;1273;22626;-77
2022/01/16 10:48:03;;;;;;;28.70;12.80;;;;;;;1.12;72.69;99013.66;108420;1274;24282;-75
2022/01/16 10:50:38;;;;;;;28.90;12.60;;;;;;;1.19;71.68;99008.55;108454;1273;25252;-75
2022/01/16 10:53:09;;;;;;;43.10;15.90;;;;;;;1.28;71.31;99007.15;108431;1274;22655;-75
2022/01/16 10:55:41;;;;;;;34.20;13.20;;;;;;;1.39;71.15;99005.02;108415;1273;26178;-76
2022/01/16 10:58:09;;;;;;;48.40;18.50;;;;;;;1.40;70.85;99004.67;108435;1274;22551;-76
2022/01/16 11:00:38;;;;;;;69.90;26.10;;;;;;;1.45;70.09;99000.77;108451;1273;22567;-75
2022/01/16 11:03:07;;;;;;;75.00;25.20;;;;;;;1.51;69.53;98993.09;108415;1273;24430;-75
2022/01/16 11:05:41;;;;;;;90.80;30.90;;;;;;;1.55;68.46;98994.52;108424;1274;22563;-75
2022/01/16 11:08:12;;;;;;;92.10;29.40;;;;;;;1.63;69.18;98988.85;108440;1274;22579;-77
2022/01/16 11:10:46;;;;;;;61.50;19.90;;;;;;;1.69;69.73;98986.66;108447;1274;22552;-77
2022/01/16 11:13:16;;;;;;;50.10;17.50;;;;;;;1.76;68.83;98981.52;108442;1273;22559;-77
2022/01/16 11:15:46;;;;;;;39.40;15.40;;;;;;;1.82;69.19;98978.42;108426;1273;22706;-77
2022/01/16 11:18:13;;;;;;;37.40;17.00;;;;;;;1.90;69.10;98977.70;108432;1273;22560;-76
2022/01/16 11:20:44;;;;;;;48.80;18.80;;;;;;;1.95;68.07;98973.47;108434;1274;22873;-76
2022/01/16 11:25:41;;;;;;;41.60;17.90;;;;;;;2.18;68.96;98974.94;108425;1274;22542;-77
2022/01/16 11:28:14;;;;;;;23.20;11.50;;;;;;;2.24;68.55;98973.23;108426;1273;22563;-76
2022/01/16 11:30:47;;;;;;;24.10;12.00;;;;;;;2.27;67.55;98974.20;108435;1273;22564;-79
2022/01/16 11:33:18;;;;;;;23.40;9.90;;;;;;;2.27;67.57;98974.19;108447;1274;22553;-76
2022/01/16 11:35:54;;;;;;;17.80;8.90;;;;;;;2.28;67.01;98973.48;108470;1272;22707;-78
2022/01/16 11:38:27;;;;;;;16.10;7.60;;;;;;;2.28;66.72;98972.98;108453;1273;22726;-76
2022/01/16 11:40:54;;;;;;;20.70;10.30;;;;;;;2.26;66.82;98970.60;108431;1274;24269;-76
2022/01/16 11:43:23;;;;;;;18.10;8.00;;;;;;;2.23;66.38;98965.38;108444;1273;22643;-78
2022/01/16 11:45:54;;;;;;;20.80;9.00;;;;;;;2.24;67.01;98965.16;108502;1274;22553;-78
2022/01/16 11:48:36;;;;;;;22.70;10.90;;;;;;;2.25;66.68;98963.41;108456;1273;24117;-77
2022/01/16 11:51:35;;;;;;;17.60;7.40;;;;;;;2.25;66.85;98964.63;108422;1273;22585;-76
2022/01/16 11:54:04;;;;;;;22.40;10.60;;;;;;;2.27;66.24;98957.35;108451;1273;22713;-79
2022/01/16 11:56:37;;;;;;;19.60;9.00;;;;;;;2.31;66.01;98957.45;108426;1273;25358;-78
2022/01/16 11:59:22;;;;;;;19.00;9.40;;;;;;;2.29;66.05;98958.85;108463;1274;22722;-79
2022/01/16 12:02:21;;;;;;;19.40;8.40;;;;;;;2.29;65.84;98957.48;108430;1274;22617;-78
2022/01/16 12:04:50;;;;;;;20.30;8.90;;;;;;;2.35;66.20;98961.08;108339;1274;22569;-79
2022/01/16 12:07:20;;;;;;;17.70;8.40;;;;;;;2.42;66.18;98965.17;108405;1274;26113;-78